createdAt,value
2019-01-20T00:01:15.297Z,4.00
2019-01-20T00:03:44.191Z,4.70
2019-01-20T00:06:13.185Z,5.03
2019-01-20T00:08:42.049Z,3.40
2019-01-20T00:11:16.659Z,3.53
2019-01-20T00:13:45.365Z,3.30
2019-01-20T00:16:14.670Z,3.93
2019-01-20T00:18:44.579Z,3.40
2019-01-20T00:21:13.473Z,3.40
2019-01-20T00:23:44.733Z,3.60
2019-01-20T00:26:17.943Z,4.00
2019-01-20T00:28:44.141Z,3.87
2019-01-20T00:31:13.253Z,4.10
2019-01-20T00:33:43.579Z,4.30
2019-01-20T00:36:12.326Z,4.77
2019-01-20T00:38:41.354Z,4.27
2019-01-20T00:41:10.317Z,4.37
2019-01-20T00:43:39.446Z,4.30
2019-01-20T00:46:08.361Z,3.83
2019-01-20T00:48:37.426Z,4.20
2019-01-20T00:51:07.942Z,4.83
2019-01-20T00:53:39.929Z,4.00
2019-01-20T00:56:10.455Z,3.80
2019-01-20T00:58:39.345Z,4.23
2019-01-20T01:01:08.438Z,5.37
2019-01-20T01:03:37.247Z,5.00
2019-01-20T01:06:06.425Z,4.87
2019-01-20T01:08:35.520Z,5.60
2019-01-20T01:11:04.753Z,5.03
2019-01-20T01:13:33.589Z,4.50
2019-01-20T01:16:02.804Z,4.83
2019-01-20T01:18:33.009Z,4.30
2019-01-20T01:21:01.816Z,4.17
2019-01-20T01:23:30.736Z,3.87
2019-01-20T01:25:59.802Z,4.27
2019-01-20T01:28:30.131Z,4.33
2019-01-20T01:30:59.430Z,4.03
2019-01-20T01:33:28.114Z,4.13
2019-01-20T01:35:57.002Z,3.83
2019-01-20T01:38:25.890Z,3.30
2019-01-20T01:40:54.782Z,4.10
2019-01-20T01:43:25.555Z,3.70
2019-01-20T01:45:54.355Z,3.60
2019-01-20T01:48:23.195Z,3.97
2019-01-20T01:50:52.084Z,3.67
2019-01-20T01:53:22.226Z,4.03
2019-01-20T01:55:51.303Z,3.50
2019-01-20T01:58:20.986Z,4.70
2019-01-20T02:00:49.882Z,4.53
2019-01-20T02:03:18.795Z,3.60
2019-01-20T02:05:50.336Z,4.00
2019-01-20T02:08:19.230Z,4.17
2019-01-20T02:10:48.134Z,4.37
2019-01-20T02:13:17.019Z,4.23
2019-01-20T02:15:46.015Z,4.30
2019-01-20T02:18:14.781Z,3.63
2019-01-20T02:20:43.481Z,4.13
2019-01-20T02:23:12.480Z,3.10
2019-01-20T02:25:41.356Z,4.50
2019-01-20T02:28:10.142Z,4.20
2019-01-20T02:30:38.934Z,4.20
2019-01-20T02:33:07.779Z,3.87
2019-01-20T02:35:36.623Z,3.97
2019-01-20T02:38:05.513Z,4.07
2019-01-20T02:40:34.613Z,3.90
2019-01-20T02:43:03.372Z,4.50
2019-01-20T02:45:32.364Z,4.20
2019-01-20T02:48:01.288Z,4.23
2019-01-20T02:50:30.580Z,3.97
2019-01-20T02:52:59.682Z,3.40
2019-01-20T02:55:28.451Z,4.30
2019-01-20T02:58:01.880Z,4.40
2019-01-20T03:00:35.258Z,4.63
2019-01-20T03:03:04.148Z,4.40
2019-01-20T03:05:33.042Z,4.20
2019-01-20T03:08:02.212Z,4.23
2019-01-20T03:10:31.025Z,4.03
2019-01-20T03:12:59.920Z,4.77
2019-01-20T03:15:29.383Z,4.40
2019-01-20T03:17:58.312Z,4.43
2019-01-20T03:20:27.078Z,4.90
2019-01-20T03:22:55.870Z,4.43
2019-01-20T03:25:24.883Z,4.83
2019-01-20T03:27:53.774Z,4.77
2019-01-20T03:30:23.284Z,4.17
2019-01-20T03:32:52.286Z,5.17
2019-01-20T03:35:23.524Z,5.57
2019-01-20T03:37:52.382Z,5.33
2019-01-20T03:40:21.399Z,5.00
2019-01-20T03:42:50.495Z,5.63
2019-01-20T03:45:20.411Z,7.37
2019-01-20T03:47:49.697Z,7.30
2019-01-20T03:50:18.963Z,7.30
2019-01-20T03:52:47.879Z,7.33
2019-01-20T03:55:18.538Z,7.30
2019-01-20T03:57:47.629Z,6.53
2019-01-20T04:00:21.849Z,7.53
2019-01-20T04:02:52.577Z,6.60
2019-01-20T04:05:21.546Z,7.00
2019-01-20T04:07:50.562Z,7.53
2019-01-20T04:10:19.331Z,7.93
2019-01-20T04:12:48.754Z,7.27
2019-01-20T04:15:17.634Z,7.77
2019-01-20T04:17:46.537Z,7.90
2019-01-20T04:20:16.101Z,7.67
2019-01-20T04:22:46.571Z,8.97
2019-01-20T04:25:17.920Z,8.17
2019-01-20T04:27:47.091Z,8.07
2019-01-20T04:30:18.185Z,8.53
2019-01-20T04:32:46.946Z,13.00
2019-01-20T04:35:15.717Z,11.87
2019-01-20T04:37:49.047Z,9.30
2019-01-20T04:40:18.942Z,9.37
2019-01-20T04:42:48.835Z,10.07
2019-01-20T04:45:17.751Z,10.47
2019-01-20T04:47:47.297Z,10.70
2019-01-20T04:50:20.041Z,10.33
2019-01-20T04:52:49.223Z,9.77
2019-01-20T04:55:18.941Z,9.57
2019-01-20T04:57:49.865Z,8.60
2019-01-20T05:00:21.642Z,8.73
2019-01-20T05:02:51.945Z,8.40
2019-01-20T05:05:21.010Z,8.90
2019-01-20T05:07:49.952Z,10.03
2019-01-20T05:10:36.679Z,9.03
2019-01-20T05:13:05.557Z,9.50
2019-01-20T05:15:34.441Z,8.80
2019-01-20T05:18:03.330Z,9.30
2019-01-20T05:20:33.193Z,9.10
2019-01-20T05:23:02.137Z,8.83
2019-01-20T05:25:30.897Z,7.77
2019-01-20T05:27:59.691Z,8.33
2019-01-20T05:30:28.602Z,8.00
2019-01-20T05:32:57.496Z,7.83
2019-01-20T05:35:26.369Z,8.10
2019-01-20T05:37:55.480Z,8.83
2019-01-20T05:40:26.014Z,8.97
2019-01-20T05:42:57.643Z,8.00
2019-01-20T05:45:26.448Z,8.60
2019-01-20T05:47:55.140Z,8.20
2019-01-20T05:50:24.032Z,7.97
2019-01-20T05:52:52.922Z,8.17
2019-01-20T05:55:21.814Z,9.00
2019-01-20T05:57:50.806Z,9.33
2019-01-20T06:00:25.210Z,8.70
2019-01-20T06:02:54.117Z,8.03
2019-01-20T06:05:23.008Z,8.87
2019-01-20T06:07:52.306Z,8.63
2019-01-20T06:10:21.130Z,8.73
2019-01-20T06:12:54.369Z,9.17
2019-01-20T06:15:22.671Z,8.53
2019-01-20T06:17:51.873Z,9.20
2019-01-20T06:20:22.163Z,9.03
2019-01-20T06:22:51.381Z,9.17
2019-01-20T06:25:21.710Z,8.90
2019-01-20T06:27:50.594Z,9.33
2019-01-20T06:30:25.019Z,9.63
2019-01-20T06:32:53.920Z,9.37
2019-01-20T06:35:22.778Z,9.13
2019-01-20T06:37:51.693Z,9.43
2019-01-20T06:40:20.637Z,8.73
2019-01-20T06:42:49.857Z,8.70
2019-01-20T06:45:19.385Z,9.23
2019-01-20T06:47:48.259Z,8.77
2019-01-20T06:50:19.274Z,8.70
2019-01-20T06:52:48.465Z,8.90
2019-01-20T06:55:17.383Z,9.00
2019-01-20T06:57:49.367Z,9.37
2019-01-20T07:00:23.972Z,10.53
2019-01-20T07:02:52.882Z,9.77
2019-01-20T07:05:21.723Z,8.97
2019-01-20T07:07:50.962Z,9.97
2019-01-20T07:10:20.521Z,9.23
2019-01-20T07:12:49.370Z,10.17
2019-01-20T07:15:20.090Z,9.67
2019-01-20T07:17:48.990Z,8.93
2019-01-20T07:20:18.171Z,7.70
2019-01-20T07:22:46.979Z,9.07
2019-01-20T07:25:15.870Z,8.83
2019-01-20T07:27:44.748Z,8.00
2019-01-20T07:30:18.565Z,8.77
2019-01-20T07:32:47.457Z,9.27
2019-01-20T07:35:16.421Z,9.00
2019-01-20T07:37:45.543Z,10.80
2019-01-20T07:40:17.508Z,8.60
2019-01-20T07:42:47.832Z,9.63
2019-01-20T07:45:18.154Z,8.87
2019-01-20T07:47:48.655Z,7.83
2019-01-20T07:50:22.193Z,8.53
2019-01-20T07:52:51.381Z,7.93
2019-01-20T07:55:20.275Z,8.80
2019-01-20T07:57:49.374Z,8.67
2019-01-20T08:00:22.971Z,9.50
2019-01-20T08:02:51.865Z,7.57
2019-01-20T08:05:21.354Z,9.17
2019-01-20T08:07:53.125Z,9.73
2019-01-20T08:10:24.559Z,10.20
2019-01-20T08:12:53.359Z,10.27
2019-01-20T08:15:22.462Z,10.47
2019-01-20T08:17:51.346Z,10.30
2019-01-20T08:20:24.568Z,9.90
2019-01-20T08:22:53.430Z,10.17
2019-01-20T08:25:25.987Z,11.27
2019-01-20T08:27:54.786Z,9.77
2019-01-20T08:30:25.785Z,10.83
2019-01-20T08:32:54.732Z,10.73
2019-01-20T08:35:23.621Z,11.03
2019-01-20T08:37:52.508Z,9.80
2019-01-20T08:40:23.649Z,11.13
2019-01-20T08:42:52.419Z,10.60
2019-01-20T08:45:58.915Z,11.00
2019-01-20T08:48:27.809Z,11.63
2019-01-20T08:50:57.080Z,10.90
2019-01-20T08:53:26.299Z,10.73
2019-01-20T08:55:55.189Z,10.70
2019-01-20T08:58:25.321Z,11.03
2019-01-20T09:00:56.251Z,11.63
2019-01-20T09:03:25.960Z,10.50
2019-01-20T09:05:55.131Z,10.80
2019-01-20T09:08:24.948Z,10.40
2019-01-20T09:10:53.907Z,11.83
2019-01-20T09:13:23.454Z,10.03
2019-01-20T09:15:55.007Z,11.13
2019-01-20T09:18:24.818Z,10.77
2019-01-20T09:20:53.708Z,10.67
2019-01-20T09:23:22.611Z,10.37
2019-01-20T09:25:51.423Z,10.03
2019-01-20T09:28:22.781Z,9.57
2019-01-20T09:30:52.666Z,10.07
2019-01-20T09:33:25.857Z,9.00
2019-01-20T09:35:54.645Z,8.47
2019-01-20T09:38:23.741Z,9.10
2019-01-20T09:40:52.530Z,9.50
2019-01-20T09:43:24.742Z,9.33
2019-01-20T09:45:53.934Z,9.60
2019-01-20T09:48:24.406Z,10.70
2019-01-20T09:50:53.211Z,9.00
2019-01-20T09:53:23.834Z,10.43
2019-01-20T09:55:53.447Z,9.90
2019-01-20T09:58:24.037Z,10.97
2019-01-20T10:00:54.304Z,10.00
2019-01-20T10:03:23.409Z,11.80
2019-01-20T10:05:53.758Z,10.40
2019-01-20T10:08:22.718Z,11.70
2019-01-20T10:10:51.810Z,11.10
2019-01-20T10:13:23.446Z,12.33
2019-01-20T10:15:52.869Z,12.63
2019-01-20T10:18:24.625Z,11.13
2019-01-20T10:20:53.720Z,12.13
2019-01-20T10:23:22.828Z,11.97
2019-01-20T10:25:51.709Z,11.03
2019-01-20T10:28:21.833Z,11.63
2019-01-20T10:30:53.670Z,11.27
2019-01-20T10:33:28.824Z,11.70
2019-01-20T10:36:01.927Z,12.60
2019-01-20T10:38:30.905Z,11.60
2019-01-20T10:41:02.254Z,9.93
2019-01-20T10:43:30.983Z,9.90
2019-01-20T10:45:59.754Z,9.37
2019-01-20T10:48:31.896Z,9.70
2019-01-20T10:51:05.712Z,9.77
2019-01-20T10:53:36.754Z,8.87
2019-01-20T10:56:05.737Z,9.13
2019-01-20T10:58:34.630Z,8.87
2019-01-20T11:01:05.030Z,9.00
2019-01-20T11:03:35.062Z,10.03
2019-01-20T11:06:03.941Z,9.53
2019-01-20T11:08:33.367Z,10.13
2019-01-20T11:11:02.257Z,9.93
2019-01-20T11:13:31.458Z,10.70
2019-01-20T11:16:00.347Z,9.90
2019-01-20T11:18:30.020Z,9.77
2019-01-20T11:20:58.949Z,10.63
2019-01-20T11:23:30.097Z,8.43
2019-01-20T11:26:02.266Z,8.77
2019-01-20T11:28:36.064Z,10.37
2019-01-20T11:31:07.824Z,8.57
2019-01-20T11:33:38.965Z,9.53
2019-01-20T11:36:08.265Z,8.70
2019-01-20T11:38:37.171Z,8.43
2019-01-20T11:41:09.007Z,8.77
2019-01-20T11:43:37.784Z,7.87
2019-01-20T11:46:07.931Z,9.33
2019-01-20T11:48:36.816Z,8.77
2019-01-20T11:51:05.816Z,9.27
2019-01-20T11:53:34.696Z,9.03
2019-01-20T11:56:10.705Z,8.47
2019-01-20T11:58:39.446Z,9.43
2019-01-20T12:01:11.286Z,10.07
2019-01-20T12:03:50.928Z,9.77
2019-01-20T12:06:21.855Z,8.90
2019-01-20T12:08:52.026Z,8.90
2019-01-20T12:11:20.793Z,9.57
2019-01-20T12:13:49.785Z,9.73
2019-01-20T12:16:19.652Z,9.17
2019-01-20T12:18:48.695Z,9.97
2019-01-20T12:21:22.394Z,9.93
2019-01-20T12:23:57.300Z,9.83
2019-01-20T12:26:27.628Z,10.20
2019-01-20T12:28:56.414Z,9.20
2019-01-20T12:31:27.181Z,9.17
2019-01-20T12:33:56.269Z,10.33
2019-01-20T12:36:25.366Z,9.60
2019-01-20T12:38:55.782Z,8.80
2019-01-20T12:41:26.467Z,9.90
2019-01-20T12:43:56.742Z,9.57
2019-01-20T12:46:25.640Z,9.00
2019-01-20T12:48:56.064Z,9.53
2019-01-20T12:51:28.578Z,9.47
2019-01-20T12:53:57.101Z,9.70
2019-01-20T12:56:27.738Z,9.70
2019-01-20T12:58:56.541Z,9.77
2019-01-20T13:01:27.174Z,10.17
2019-01-20T13:03:56.271Z,9.23
2019-01-20T13:06:28.026Z,10.27
2019-01-20T13:08:57.945Z,9.33
2019-01-20T13:11:27.139Z,8.63
2019-01-20T13:13:56.129Z,10.53
2019-01-20T13:16:29.668Z,8.87
2019-01-20T13:19:01.372Z,9.13
2019-01-20T13:21:30.487Z,8.83
2019-01-20T13:24:03.271Z,9.57
2019-01-20T13:26:33.522Z,9.67
2019-01-20T13:29:02.371Z,9.60
2019-01-20T13:31:31.255Z,8.90
2019-01-20T13:34:00.057Z,9.20
2019-01-20T13:36:32.269Z,10.63
2019-01-20T13:39:02.945Z,9.90
2019-01-20T13:41:34.922Z,8.80
2019-01-20T13:44:04.523Z,9.60
2019-01-20T13:46:33.725Z,8.70
2019-01-20T13:49:02.828Z,9.13
2019-01-20T13:51:34.991Z,8.60
2019-01-20T13:54:07.846Z,8.60
2019-01-20T13:56:38.719Z,9.03
2019-01-20T13:59:08.922Z,8.70
2019-01-20T14:01:40.797Z,9.40
2019-01-20T14:04:11.220Z,8.57
2019-01-20T14:06:42.977Z,9.50
2019-01-20T14:09:23.346Z,9.20
2019-01-20T14:11:52.165Z,9.20
2019-01-20T14:14:20.973Z,9.13
2019-01-20T14:16:51.246Z,9.20
2019-01-20T14:19:21.826Z,13.90
2019-01-20T14:21:53.631Z,10.10
2019-01-20T14:24:24.029Z,8.77
2019-01-20T14:26:52.946Z,8.23
2019-01-20T14:29:25.738Z,8.77
2019-01-20T14:31:55.441Z,9.37
2019-01-20T14:34:24.334Z,9.17
2019-01-20T14:36:55.879Z,9.20
2019-01-20T14:39:26.587Z,9.77
2019-01-20T14:41:55.504Z,10.33
2019-01-20T14:44:24.398Z,9.63
2019-01-20T14:46:53.901Z,10.00
2019-01-20T14:49:25.542Z,9.33
2019-01-20T14:52:14.823Z,10.20
2019-01-20T14:54:46.726Z,9.63
2019-01-20T14:57:15.679Z,8.57
2019-01-20T14:59:47.314Z,8.70
2019-01-20T15:02:16.157Z,9.93
2019-01-20T15:04:49.785Z,9.60
2019-01-20T15:07:18.282Z,10.60
2019-01-20T15:09:47.326Z,10.77
2019-01-20T15:12:16.280Z,10.27
2019-01-20T15:14:49.675Z,10.90
2019-01-20T15:17:21.695Z,8.87
2019-01-20T15:19:53.816Z,8.70
2019-01-20T15:22:22.708Z,8.20
2019-01-20T15:24:51.502Z,8.80
2019-01-20T15:27:20.280Z,8.73
2019-01-20T15:29:50.098Z,9.13
2019-01-20T15:32:20.077Z,9.27
2019-01-20T15:34:49.107Z,7.97
2019-01-20T15:37:17.875Z,7.90
2019-01-20T15:39:53.224Z,8.43
2019-01-20T15:42:26.122Z,8.53
2019-01-20T15:44:55.116Z,9.00
2019-01-20T15:47:27.171Z,9.87
2019-01-20T15:49:56.618Z,21.90
2019-01-20T15:52:25.884Z,12.33
2019-01-20T15:54:56.123Z,15.63
2019-01-20T15:57:27.819Z,16.87
2019-01-20T15:59:56.333Z,14.00
2019-01-20T16:02:28.327Z,11.13
2019-01-20T16:04:57.615Z,10.20
2019-01-20T16:07:29.957Z,9.70
2019-01-20T16:09:58.746Z,10.80
2019-01-20T16:12:27.647Z,11.20
2019-01-20T16:14:56.446Z,14.87
2019-01-20T16:17:25.784Z,14.00
2019-01-20T16:19:56.279Z,15.00
2019-01-20T16:22:26.775Z,24.23
2019-01-20T16:24:58.364Z,18.33
2019-01-20T16:27:27.907Z,15.30
2019-01-20T16:30:02.127Z,15.77
2019-01-20T16:32:33.433Z,13.73
2019-01-20T16:35:02.317Z,13.80
2019-01-20T16:37:31.415Z,15.17
2019-01-20T16:40:00.203Z,13.30
2019-01-20T16:42:28.888Z,14.80
2019-01-20T16:44:57.881Z,15.73
2019-01-20T16:47:26.787Z,15.77
2019-01-20T16:49:55.538Z,22.77
2019-01-20T16:52:24.799Z,17.23
2019-01-20T16:54:56.083Z,17.37
2019-01-20T16:57:26.637Z,16.77
2019-01-20T16:59:55.526Z,15.07
2019-01-20T17:02:24.407Z,15.10
2019-01-20T17:04:56.282Z,16.73
2019-01-20T17:07:35.407Z,15.30
2019-01-20T17:10:07.475Z,14.83
2019-01-20T17:12:36.463Z,16.67
2019-01-20T17:15:08.312Z,17.27
2019-01-20T17:17:37.425Z,16.13
2019-01-20T17:20:12.071Z,16.53
2019-01-20T17:22:41.550Z,21.00
2019-01-20T17:25:12.060Z,22.13
2019-01-20T17:27:42.811Z,23.73
2019-01-20T17:30:34.584Z,33.60
2019-01-20T17:33:05.868Z,29.43
2019-01-20T17:35:34.654Z,25.50
2019-01-20T17:38:10.634Z,31.20
2019-01-20T17:40:39.521Z,29.17
2019-01-20T17:43:17.114Z,24.03
2019-01-20T17:45:50.211Z,17.93
2019-01-20T17:48:22.616Z,16.57
2019-01-20T17:50:54.214Z,15.50
2019-01-20T17:53:24.172Z,15.57
2019-01-20T17:55:53.241Z,19.40
2019-01-20T17:58:22.184Z,25.37
2019-01-20T18:00:54.301Z,22.43
2019-01-20T18:03:23.387Z,22.57
2019-01-20T18:05:55.253Z,21.23
2019-01-20T18:08:24.249Z,21.27
2019-01-20T18:10:53.047Z,20.40
2019-01-20T18:13:22.520Z,24.87
2019-01-20T18:15:54.612Z,24.73
2019-01-20T18:18:24.318Z,25.07
2019-01-20T18:20:53.306Z,24.90
2019-01-20T18:23:28.130Z,26.30
2019-01-20T18:25:56.929Z,25.97
2019-01-20T18:28:45.787Z,26.00
2019-01-20T18:31:14.679Z,25.47
2019-01-20T18:33:43.512Z,25.47
2019-01-20T18:36:13.790Z,25.47
2019-01-20T18:38:44.322Z,24.20
2019-01-20T18:41:14.424Z,19.77
2019-01-20T18:43:44.993Z,20.00
2019-01-20T18:46:13.856Z,22.73
2019-01-20T18:48:44.041Z,21.40
2019-01-20T18:51:15.899Z,21.33
2019-01-20T18:53:47.905Z,17.80
2019-01-20T18:56:22.747Z,19.03
2019-01-20T18:58:52.956Z,18.07
2019-01-20T19:01:27.584Z,19.10
2019-01-20T19:04:02.823Z,20.30
2019-01-20T19:06:32.331Z,18.87
2019-01-20T19:09:05.313Z,17.53
2019-01-20T19:11:35.751Z,18.23
2019-01-20T19:14:08.523Z,17.67
2019-01-20T19:16:37.352Z,16.67
2019-01-20T19:19:10.463Z,18.13
2019-01-20T19:21:40.559Z,17.47
2019-01-20T19:24:09.920Z,16.33
2019-01-20T19:26:38.707Z,16.57
2019-01-20T19:29:07.496Z,16.87
2019-01-20T19:31:36.803Z,17.90
2019-01-20T19:34:06.900Z,19.20
2019-01-20T19:36:35.805Z,18.70
2019-01-20T19:39:06.867Z,18.23
2019-01-20T19:41:35.847Z,18.27
2019-01-20T19:44:08.536Z,17.70
2019-01-20T19:46:41.874Z,18.63
2019-01-20T19:49:13.361Z,17.70
2019-01-20T19:51:42.898Z,17.40
2019-01-20T19:54:12.746Z,20.13
2019-01-20T19:56:46.601Z,20.57
2019-01-20T19:59:15.501Z,17.27
2019-01-20T20:01:44.407Z,17.77
2019-01-20T20:04:13.676Z,17.10
2019-01-20T20:06:42.577Z,18.20
2019-01-20T20:09:14.226Z,17.43
2019-01-20T20:11:43.223Z,18.90
2019-01-20T20:14:12.980Z,17.63
2019-01-20T20:16:43.892Z,18.73
2019-01-20T20:19:15.905Z,19.10
2019-01-20T20:21:46.496Z,17.53
2019-01-20T20:24:25.309Z,18.57
2019-01-20T20:26:52.230Z,17.97
2019-01-20T20:29:21.116Z,18.23
2019-01-20T20:31:50.172Z,18.10
2019-01-20T20:34:19.753Z,19.90
2019-01-20T20:36:48.612Z,19.13
2019-01-20T20:39:19.322Z,18.50
2019-01-20T20:41:50.229Z,20.33
2019-01-20T20:44:23.721Z,19.10
2019-01-20T20:46:52.568Z,18.87
2019-01-20T20:49:21.667Z,20.30
2019-01-20T20:51:50.554Z,18.00
2019-01-20T20:54:19.573Z,20.00
2019-01-20T20:56:48.337Z,19.47
2019-01-20T20:59:18.865Z,19.50
2019-01-20T21:01:48.372Z,19.87
2019-01-20T21:04:19.819Z,19.50
2019-01-20T21:06:49.121Z,19.40
2019-01-20T21:09:18.013Z,19.60
2019-01-20T21:11:47.419Z,18.53
2019-01-20T21:14:16.753Z,19.90
2019-01-20T21:16:47.960Z,19.13
2019-01-20T21:19:16.952Z,18.63
2019-01-20T21:21:45.842Z,18.70
2019-01-20T21:24:16.371Z,18.60
2019-01-20T21:26:46.349Z,18.83
2019-01-20T21:29:17.631Z,19.47
2019-01-20T21:31:46.733Z,19.40
2019-01-20T21:34:15.514Z,20.00
2019-01-20T21:36:44.409Z,18.83
2019-01-20T21:39:13.813Z,18.00
2019-01-20T21:41:42.907Z,20.77
2019-01-20T21:44:13.027Z,19.03
2019-01-20T21:46:45.402Z,19.00
2019-01-20T21:49:12.855Z,19.87
2019-01-20T21:51:41.746Z,19.43
2019-01-20T21:54:13.714Z,20.07
2019-01-20T21:56:42.604Z,20.50
2019-01-20T21:59:11.699Z,20.80
2019-01-20T22:01:40.586Z,19.67
2019-01-20T22:04:13.962Z,19.90
2019-01-20T22:06:43.996Z,20.27
2019-01-20T22:09:15.055Z,19.90
2019-01-20T22:11:45.209Z,18.87
2019-01-20T22:14:15.566Z,20.23
2019-01-20T22:16:52.643Z,21.07
2019-01-20T22:19:18.490Z,23.63
2019-01-20T22:21:47.382Z,24.70
2019-01-20T22:24:16.256Z,23.53
2019-01-20T22:26:45.160Z,24.10
2019-01-20T22:29:15.087Z,23.57
2019-01-20T22:31:43.951Z,21.83
2019-01-20T22:34:12.733Z,21.50
2019-01-20T22:36:41.748Z,24.00
2019-01-20T22:39:11.960Z,20.00
2019-01-20T22:42:00.306Z,21.03
2019-01-20T22:44:29.498Z,27.63
2019-01-20T22:47:05.675Z,22.97
2019-01-20T22:49:48.036Z,25.00
2019-01-20T22:52:24.121Z,24.53
2019-01-20T22:54:55.903Z,22.47
2019-01-20T22:57:24.793Z,21.53
2019-01-20T22:59:53.683Z,20.80
2019-01-20T23:02:23.186Z,20.73
2019-01-20T23:04:52.074Z,19.83
2019-01-20T23:07:20.968Z,21.17
2019-01-20T23:09:49.856Z,20.83
2019-01-20T23:12:18.746Z,22.13
2019-01-20T23:14:47.725Z,20.57
2019-01-20T23:17:16.735Z,20.63
2019-01-20T23:22:28.543Z,23.53
2019-01-20T23:24:57.238Z,22.53
2019-01-20T23:27:27.962Z,22.67
2019-01-20T23:29:58.711Z,21.03
2019-01-20T23:32:27.808Z,20.33
2019-01-20T23:34:58.485Z,22.73
2019-01-20T23:37:27.421Z,21.20
2019-01-20T23:39:57.961Z,21.27
2019-01-20T23:42:27.143Z,20.47
2019-01-20T23:44:56.034Z,21.07
2019-01-20T23:47:28.614Z,20.37
2019-01-20T23:49:57.398Z,20.97
2019-01-20T23:52:26.493Z,18.73
2019-01-20T23:54:55.385Z,20.23
2019-01-20T23:57:25.914Z,19.97
2019-01-20T23:59:55.017Z,18.97
